createdAt,value
2018-06-16T00:00:56.847Z,98058.72
2018-06-16T00:03:25.514Z,98057.70
2018-06-16T00:05:54.122Z,98093.22
2018-06-16T00:08:22.730Z,98084.09
2018-06-16T00:10:51.218Z,98095.25
2018-06-16T00:13:19.706Z,98117.58
2018-06-16T00:15:48.258Z,98113.52
2018-06-16T00:18:16.739Z,98122.66
2018-06-16T00:20:45.279Z,98094.23
2018-06-16T00:23:13.770Z,98156.14
2018-06-16T00:25:42.253Z,98134.83
2018-06-16T00:28:10.755Z,98141.93
2018-06-16T00:30:39.246Z,98149.03
2018-06-16T00:33:07.742Z,98150.05
2018-06-16T00:35:36.380Z,98151.06
2018-06-16T00:38:04.938Z,98148.02
2018-06-16T00:40:33.428Z,98166.28
2018-06-16T00:43:02.128Z,98125.70
2018-06-16T00:45:30.649Z,98120.63
2018-06-16T00:47:59.139Z,98111.48
2018-06-16T00:50:27.695Z,98093.22
2018-06-16T00:52:56.288Z,98057.70
2018-06-16T00:55:24.777Z,98085.11
2018-06-16T00:57:53.246Z,98130.77
2018-06-16T01:00:21.824Z,98121.63
2018-06-16T01:02:50.420Z,98124.68
2018-06-16T01:05:18.957Z,98128.73
2018-06-16T01:07:47.673Z,98133.81
2018-06-16T01:10:16.156Z,98140.92
2018-06-16T01:12:44.651Z,98099.31
2018-06-16T01:15:13.266Z,98104.39
2018-06-16T01:17:41.724Z,98125.70
2018-06-16T01:20:10.205Z,98092.20
2018-06-16T01:22:38.688Z,98102.36
2018-06-16T01:25:07.221Z,98085.11
2018-06-16T01:27:35.718Z,98073.95
2018-06-16T01:30:04.330Z,98018.13
2018-06-16T01:32:32.853Z,98050.60
2018-06-16T01:35:01.353Z,98108.45
2018-06-16T01:37:29.861Z,98131.78
2018-06-16T01:39:58.511Z,98124.68
2018-06-16T01:42:27.009Z,98155.13
2018-06-16T01:44:55.502Z,98187.59
2018-06-16T01:47:24.038Z,98190.64
2018-06-16T01:49:52.617Z,98080.03
2018-06-16T01:52:21.341Z,98129.75
2018-06-16T01:54:50.005Z,98095.25
2018-06-16T01:57:18.486Z,98154.11
2018-06-16T01:59:46.969Z,98149.03
2018-06-16T02:02:15.573Z,98176.43
2018-06-16T02:04:44.158Z,98179.48
2018-06-16T02:07:12.617Z,98218.03
2018-06-16T02:09:41.121Z,98193.69
2018-06-16T02:12:09.722Z,98189.63
2018-06-16T02:14:38.231Z,98212.97
2018-06-16T02:17:06.940Z,98170.34
2018-06-16T02:19:35.636Z,98202.81
2018-06-16T02:22:04.136Z,98191.66
2018-06-16T02:24:32.617Z,98116.56
2018-06-16T02:27:01.131Z,98086.13
2018-06-16T02:29:29.634Z,98130.77
2018-06-16T02:31:58.158Z,98139.91
2018-06-16T02:34:26.705Z,98153.09
2018-06-16T02:36:55.248Z,98175.42
2018-06-16T02:39:23.721Z,98179.48
2018-06-16T02:41:52.212Z,98169.33
2018-06-16T02:44:20.706Z,98177.45
2018-06-16T02:46:49.194Z,98177.45
2018-06-16T02:49:17.734Z,98148.02
2018-06-16T02:51:46.311Z,98157.16
2018-06-16T02:54:15.007Z,98186.58
2018-06-16T02:56:43.481Z,98191.66
2018-06-16T02:59:11.993Z,98197.74
2018-06-16T03:01:40.499Z,98231.23
2018-06-16T03:04:09.189Z,98201.80
2018-06-16T03:06:37.665Z,98212.97
2018-06-16T03:09:07.340Z,98250.52
2018-06-16T03:11:35.865Z,98247.47
2018-06-16T03:14:04.361Z,98209.92
2018-06-16T03:16:32.864Z,98240.36
2018-06-16T03:19:01.642Z,98192.67
2018-06-16T03:21:30.249Z,98204.84
2018-06-16T03:23:58.722Z,98214.99
2018-06-16T03:26:27.224Z,98223.11
2018-06-16T03:28:55.728Z,98270.80
2018-06-16T03:31:24.238Z,98233.26
2018-06-16T03:33:52.801Z,98293.13
2018-06-16T03:36:21.486Z,98264.72
2018-06-16T03:38:50.172Z,98262.69
2018-06-16T03:41:18.647Z,98269.80
2018-06-16T03:43:47.105Z,98275.88
2018-06-16T03:46:15.620Z,98217.02
2018-06-16T03:48:44.293Z,98226.16
2018-06-16T03:51:12.781Z,98221.09
2018-06-16T03:53:41.256Z,98232.24
2018-06-16T03:56:09.742Z,98203.83
2018-06-16T03:58:38.429Z,98183.53
2018-06-16T04:01:06.898Z,98187.59
2018-06-16T04:03:35.361Z,98207.89
2018-06-16T04:06:03.881Z,98173.39
2018-06-16T04:08:32.401Z,98082.06
2018-06-16T04:11:00.994Z,98129.75
2018-06-16T04:13:29.458Z,98208.91
2018-06-16T04:15:58.096Z,98173.39
2018-06-16T04:18:26.565Z,98268.78
2018-06-16T04:20:55.045Z,98230.22
2018-06-16T04:23:23.554Z,98185.56
2018-06-16T04:25:52.022Z,98172.37
2018-06-16T04:28:20.501Z,98149.03
2018-06-16T04:30:49.004Z,98115.55
2018-06-16T04:33:17.497Z,98118.59
2018-06-16T04:35:45.990Z,98116.56
2018-06-16T04:38:14.478Z,98106.41
2018-06-16T04:40:42.961Z,97955.22
2018-06-16T04:43:11.641Z,97872.02
2018-06-16T04:45:40.218Z,97907.53
2018-06-16T04:48:08.657Z,97969.43
2018-06-16T04:50:37.197Z,97931.88
2018-06-16T04:53:05.761Z,97971.45
2018-06-16T04:55:34.252Z,97855.78
2018-06-16T04:58:02.721Z,97829.41
2018-06-16T05:00:31.217Z,97785.77
2018-06-16T05:02:59.789Z,97881.15
2018-06-16T05:05:28.274Z,97999.88
2018-06-16T05:07:56.766Z,97956.23
2018-06-16T05:10:25.379Z,97959.28
2018-06-16T05:12:53.914Z,97995.81
2018-06-16T05:15:22.435Z,97986.68
2018-06-16T05:17:50.927Z,97954.21
2018-06-16T05:20:19.673Z,97758.38
2018-06-16T05:22:48.150Z,97717.80
2018-06-16T05:25:16.633Z,97680.25
2018-06-16T05:27:45.231Z,97646.77
2018-06-16T05:30:13.788Z,97745.19
2018-06-16T05:32:42.317Z,97766.49
2018-06-16T05:35:10.822Z,97651.84
2018-06-16T05:37:39.289Z,97734.03
2018-06-16T05:40:07.842Z,97733.02
2018-06-16T05:42:36.392Z,97750.27
2018-06-16T05:45:04.905Z,97746.20
2018-06-16T05:47:33.441Z,97791.86
2018-06-16T05:50:01.927Z,97763.45
2018-06-16T05:52:30.450Z,97679.23
2018-06-16T05:54:58.911Z,97594.02
2018-06-16T05:57:27.436Z,97624.45
2018-06-16T05:59:55.986Z,97618.36
2018-06-16T06:02:24.702Z,97554.44
2018-06-16T06:04:53.310Z,97564.59
2018-06-16T06:07:21.791Z,97572.70
2018-06-16T06:09:50.254Z,97579.80
2018-06-16T06:12:18.853Z,97529.08
2018-06-16T06:14:47.426Z,97505.74
2018-06-16T06:17:15.955Z,97615.31
2018-06-16T06:19:44.412Z,97606.19
2018-06-16T06:22:12.907Z,97536.18
2018-06-16T06:24:41.390Z,97591.98
2018-06-16T06:27:09.892Z,97550.38
2018-06-16T06:29:38.360Z,97449.94
2018-06-16T06:32:06.932Z,97444.87
2018-06-16T06:34:35.479Z,97299.80
2018-06-16T06:37:03.960Z,97490.52
2018-06-16T06:39:32.491Z,97460.09
2018-06-16T06:42:01.053Z,97485.45
2018-06-16T06:44:29.649Z,97356.61
2018-06-16T06:46:58.178Z,97270.38
2018-06-16T06:49:26.641Z,97315.01
2018-06-16T06:51:55.178Z,97288.63
2018-06-16T06:54:23.706Z,97272.40
2018-06-16T06:56:52.205Z,97249.07
2018-06-16T06:59:20.761Z,97295.73
2018-06-16T07:01:49.253Z,97164.87
2018-06-16T07:04:17.859Z,97137.48
2018-06-16T07:06:46.369Z,96907.20
2018-06-16T07:09:14.973Z,97042.12
2018-06-16T07:11:43.484Z,97107.04
2018-06-16T07:14:11.981Z,97009.66
2018-06-16T07:16:44.233Z,97037.05
2018-06-16T07:19:12.842Z,97100.95
2018-06-16T07:21:41.437Z,97069.51
2018-06-16T07:24:09.941Z,97022.84
2018-06-16T07:26:38.534Z,97013.72
2018-06-16T07:29:07.051Z,96925.46
2018-06-16T07:31:35.537Z,97014.73
2018-06-16T07:34:04.081Z,97017.77
2018-06-16T07:36:32.562Z,96905.17
2018-06-16T07:39:01.091Z,96707.38
2018-06-16T07:41:29.756Z,96990.38
2018-06-16T07:43:58.246Z,96767.22
2018-06-16T07:46:26.736Z,96842.28
2018-06-16T07:48:55.286Z,96898.08
2018-06-16T07:51:23.950Z,96943.72
2018-06-16T07:53:52.630Z,96846.34
2018-06-16T07:56:21.333Z,96852.42
2018-06-16T07:58:49.929Z,96800.69
2018-06-16T08:01:18.455Z,96918.36
2018-06-16T08:03:47.036Z,96831.13
2018-06-16T08:06:15.534Z,96802.72
2018-06-16T08:08:44.033Z,96791.56
2018-06-16T08:11:12.691Z,96709.41
2018-06-16T08:13:41.207Z,96769.25
2018-06-16T08:16:09.686Z,96867.64
2018-06-16T08:18:38.195Z,96793.59
2018-06-16T08:21:06.838Z,96679.98
2018-06-16T08:23:35.469Z,96810.84
2018-06-16T08:26:03.950Z,96832.14
2018-06-16T08:28:32.434Z,96734.76
2018-06-16T08:31:01.170Z,96808.80
2018-06-16T08:33:29.665Z,96818.95
2018-06-16T08:35:58.182Z,97016.76
2018-06-16T08:38:26.858Z,96855.47
2018-06-16T08:40:55.369Z,96592.75
2018-06-16T08:43:23.941Z,96652.59
2018-06-16T08:45:52.478Z,96723.60
2018-06-16T08:48:20.959Z,96695.20
2018-06-16T08:50:49.502Z,96625.21
2018-06-16T08:53:17.977Z,96826.05
2018-06-16T08:55:46.525Z,96818.95
2018-06-16T08:58:15.126Z,96676.94
2018-06-16T09:00:43.632Z,96654.63
2018-06-16T09:03:12.213Z,96627.23
2018-06-16T09:05:40.727Z,96731.72
2018-06-16T09:08:10.098Z,96659.70
2018-06-16T09:10:38.598Z,96709.41
2018-06-16T09:13:07.077Z,96788.52
2018-06-16T09:15:35.609Z,96788.52
2018-06-16T09:18:04.113Z,96663.76
2018-06-16T09:20:32.797Z,96602.90
2018-06-16T09:23:01.304Z,96472.05
2018-06-16T09:25:30.067Z,96384.83
2018-06-16T09:27:58.667Z,96515.67
2018-06-16T09:30:27.172Z,96721.58
2018-06-16T09:32:55.675Z,96640.42
2018-06-16T09:35:24.177Z,96512.63
2018-06-16T09:37:52.885Z,96478.14
2018-06-16T09:40:21.374Z,96502.48
2018-06-16T09:42:49.854Z,96691.14
2018-06-16T09:45:18.399Z,96558.27
2018-06-16T09:47:46.907Z,96471.04
2018-06-16T09:50:15.385Z,96580.58
2018-06-16T09:52:43.924Z,96512.63
2018-06-16T09:55:12.509Z,96427.43
2018-06-16T09:57:41.080Z,96319.92
2018-06-16T10:00:14.806Z,96274.28
2018-06-16T10:02:43.305Z,96413.23
2018-06-16T10:05:11.843Z,96441.63
2018-06-16T10:07:40.785Z,96412.22
2018-06-16T10:10:09.525Z,96384.83
2018-06-16T10:12:38.078Z,96308.77
2018-06-16T10:15:06.604Z,96497.41
2018-06-16T10:17:35.119Z,96330.06
2018-06-16T10:20:03.602Z,96277.33
2018-06-16T10:22:32.118Z,96267.19
2018-06-16T10:25:00.611Z,96283.41
2018-06-16T10:27:29.117Z,96319.92
2018-06-16T10:29:57.640Z,96395.98
2018-06-16T10:32:26.157Z,96482.20
2018-06-16T10:34:54.925Z,96321.95
2018-06-16T10:37:23.441Z,96391.93
2018-06-16T10:39:51.951Z,96314.84
2018-06-16T10:42:20.499Z,96218.50
2018-06-16T10:44:49.033Z,96334.13
2018-06-16T10:47:17.541Z,96482.20
2018-06-16T10:49:46.078Z,96552.19
2018-06-16T10:52:14.578Z,96461.91
2018-06-16T10:54:43.561Z,96654.63
2018-06-16T10:57:12.167Z,96616.09
2018-06-16T10:59:40.664Z,96440.61
2018-06-16T11:02:09.294Z,96446.70
2018-06-16T11:04:37.963Z,96473.07
2018-06-16T11:07:06.985Z,96395.98
2018-06-16T11:09:36.237Z,96343.25
2018-06-16T11:12:04.737Z,96291.52
2018-06-16T11:14:33.246Z,96332.09
2018-06-16T11:17:01.752Z,96373.67
2018-06-16T11:19:30.441Z,96335.14
2018-06-16T11:21:58.990Z,96145.48
2018-06-16T11:24:27.501Z,96068.41
2018-06-16T11:26:56.032Z,96212.41
2018-06-16T11:29:24.571Z,96299.64
2018-06-16T11:31:54.352Z,96433.52
2018-06-16T11:34:22.901Z,96096.80
2018-06-16T11:36:51.437Z,95930.48
2018-06-16T11:39:19.908Z,95933.52
2018-06-16T11:41:48.391Z,95806.77
2018-06-16T11:44:16.939Z,96262.11
2018-06-16T11:46:45.526Z,96018.71
2018-06-16T11:49:14.006Z,95959.89
2018-06-16T11:51:42.599Z,96067.39
2018-06-16T11:54:11.120Z,96082.60
2018-06-16T11:56:39.681Z,96109.98
2018-06-16T11:59:08.214Z,96079.56
2018-06-16T12:01:36.710Z,95962.94
2018-06-16T12:04:05.628Z,95880.79
2018-06-16T12:06:34.363Z,95816.91
2018-06-16T12:09:02.866Z,95836.17
2018-06-16T12:11:31.544Z,95944.68
2018-06-16T12:14:00.020Z,95908.17
2018-06-16T12:16:28.486Z,95720.57
2018-06-16T12:18:57.085Z,95772.29
2018-06-16T12:21:25.640Z,95869.64
2018-06-16T12:23:54.176Z,95860.52
2018-06-16T12:26:22.839Z,95562.38
2018-06-16T12:28:51.325Z,95719.55
2018-06-16T12:31:19.812Z,95861.52
2018-06-16T12:33:48.519Z,95914.26
2018-06-16T12:36:16.995Z,95943.67
2018-06-16T12:38:45.570Z,95764.17
2018-06-16T12:41:14.082Z,95695.22
2018-06-16T12:43:42.601Z,95871.67
2018-06-16T12:46:11.105Z,95926.43
2018-06-16T12:48:39.624Z,96066.38
2018-06-16T12:51:08.123Z,96036.97
2018-06-16T12:53:36.881Z,95934.54
2018-06-16T12:56:05.378Z,96061.30
2018-06-16T12:58:34.023Z,95887.89
2018-06-16T13:01:02.687Z,95874.70
2018-06-16T13:03:31.186Z,95876.73
2018-06-16T13:05:59.686Z,95772.29
2018-06-16T13:08:28.446Z,95873.70
2018-06-16T13:10:56.937Z,95890.94
2018-06-16T13:13:25.663Z,95838.20
2018-06-16T13:15:54.166Z,95894.98
2018-06-16T13:18:22.626Z,95795.61
2018-06-16T13:20:51.118Z,95796.63
2018-06-16T13:23:19.622Z,96085.64
2018-06-16T13:25:48.350Z,96119.11
2018-06-16T13:28:16.891Z,96079.56
2018-06-16T13:30:45.379Z,96006.54
2018-06-16T13:33:13.887Z,96037.98
2018-06-16T13:35:42.360Z,95946.70
2018-06-16T13:38:10.867Z,95881.81
2018-06-16T13:40:39.633Z,95904.12
2018-06-16T13:43:08.237Z,95997.41
2018-06-16T13:45:36.707Z,95936.56
2018-06-16T13:48:05.266Z,95925.41
2018-06-16T13:50:34.149Z,95902.09
2018-06-16T13:53:02.693Z,95830.09
2018-06-16T13:55:31.229Z,95839.22
2018-06-16T13:57:59.874Z,95955.84
2018-06-16T14:00:28.405Z,95922.37
2018-06-16T14:02:56.912Z,95917.30
2018-06-16T14:05:25.393Z,96012.63
2018-06-16T14:07:54.026Z,95925.41
2018-06-16T14:10:23.993Z,95578.61
2018-06-16T14:12:52.461Z,95487.34
2018-06-16T14:15:21.057Z,95729.70
2018-06-16T14:17:49.621Z,95700.29
2018-06-16T14:20:18.104Z,95555.28
2018-06-16T14:22:46.589Z,95840.23
2018-06-16T14:25:15.685Z,95869.64
2018-06-16T14:27:44.235Z,95789.53
2018-06-16T14:30:15.250Z,95781.41
2018-06-16T14:32:43.857Z,95716.52
2018-06-16T14:35:12.391Z,95722.59
2018-06-16T14:37:41.954Z,95682.03
2018-06-16T14:40:10.572Z,95836.17
2018-06-16T14:42:44.824Z,95826.03
2018-06-16T14:45:13.307Z,95882.82
2018-06-16T14:47:42.724Z,95809.80
2018-06-16T14:50:11.247Z,95869.64
2018-06-16T14:52:39.734Z,95974.09
2018-06-16T14:55:08.234Z,95985.25
2018-06-16T14:57:38.867Z,95754.03
2018-06-16T15:00:07.366Z,95777.36
2018-06-16T15:02:36.008Z,95837.19
2018-06-16T15:05:05.724Z,95759.11
2018-06-16T15:07:34.121Z,95847.33
2018-06-16T15:10:02.641Z,95834.14
2018-06-16T15:12:31.539Z,95805.75
2018-06-16T15:15:00.053Z,95765.19
2018-06-16T15:17:28.565Z,95879.78
2018-06-16T15:19:57.237Z,95877.75
2018-06-16T15:22:26.430Z,95979.16
2018-06-16T15:24:54.981Z,95880.79
2018-06-16T15:27:23.501Z,95981.19
2018-06-16T15:29:53.146Z,95855.44
2018-06-16T15:32:21.634Z,95924.40
2018-06-16T15:34:50.144Z,95789.53
2018-06-16T15:37:18.638Z,95783.44
2018-06-16T15:39:47.112Z,96063.33
2018-06-16T15:42:17.491Z,96146.49
2018-06-16T15:44:46.127Z,96152.58
2018-06-16T15:47:16.816Z,95927.44
2018-06-16T15:49:45.360Z,95951.78
2018-06-16T15:52:13.906Z,95930.48
2018-06-16T15:54:42.430Z,95918.31
2018-06-16T15:57:10.921Z,96118.09
2018-06-16T15:59:39.609Z,96174.89
2018-06-16T16:02:08.659Z,96188.08
2018-06-16T16:04:37.174Z,96112.02
2018-06-16T16:07:07.073Z,96124.19
2018-06-16T16:09:35.541Z,96075.50
2018-06-16T16:12:06.238Z,95924.40
2018-06-16T16:14:35.629Z,96146.49
2018-06-16T16:17:04.927Z,96149.54
2018-06-16T16:19:36.895Z,95799.67
2018-06-16T16:22:08.883Z,95905.12
2018-06-16T16:24:37.623Z,95849.36
2018-06-16T16:27:06.328Z,96098.83
2018-06-16T16:29:34.806Z,96039.00
2018-06-16T16:32:03.322Z,96229.66
2018-06-16T16:34:32.004Z,96316.88
2018-06-16T16:37:00.519Z,96366.58
2018-06-16T16:39:28.985Z,96273.27
2018-06-16T16:41:57.505Z,96402.07
2018-06-16T16:44:26.157Z,96409.17
2018-06-16T16:46:54.633Z,96570.44
2018-06-16T16:49:23.145Z,96581.59
2018-06-16T16:51:51.934Z,96586.67
2018-06-16T16:54:20.419Z,96536.97
2018-06-16T16:56:48.914Z,96559.28
2018-06-16T16:59:17.425Z,96522.77
2018-06-16T17:01:45.900Z,96575.52
2018-06-16T17:04:14.409Z,96520.74
2018-06-16T17:06:42.882Z,96573.48
2018-06-16T17:11:53.106Z,96655.64
2018-06-16T17:14:21.673Z,96648.55
2018-06-16T17:16:50.185Z,96659.70
2018-06-16T17:19:18.744Z,96674.91
2018-06-16T17:21:47.195Z,96653.61
2018-06-16T17:24:15.814Z,96656.66
2018-06-16T17:26:44.940Z,96760.12
2018-06-16T17:29:13.431Z,96850.39
2018-06-16T17:31:41.882Z,96859.53
2018-06-16T17:34:10.374Z,96800.69
2018-06-16T17:36:39.013Z,96762.15
2018-06-16T17:39:09.606Z,96807.80
2018-06-16T17:41:38.094Z,96868.66
2018-06-16T17:44:06.687Z,96899.09
2018-06-16T17:46:35.210Z,96820.98
2018-06-16T17:49:03.681Z,96866.63
2018-06-16T17:51:32.326Z,96842.28
2018-06-16T17:54:00.801Z,96890.97
2018-06-16T17:56:29.309Z,96928.50
2018-06-16T17:58:57.958Z,96947.78
2018-06-16T18:01:26.436Z,96986.33
2018-06-16T18:03:55.117Z,96946.77
2018-06-16T18:06:23.622Z,97006.61
2018-06-16T18:08:52.114Z,96964.01
2018-06-16T18:11:21.076Z,96957.92
2018-06-16T18:13:49.554Z,97038.06
2018-06-16T18:16:18.053Z,97018.78
2018-06-16T18:18:46.973Z,96991.39
2018-06-16T18:21:15.450Z,97055.30
2018-06-16T18:23:44.092Z,97068.49
2018-06-16T18:26:12.629Z,97072.55
2018-06-16T18:28:41.118Z,97049.22
2018-06-16T18:31:10.065Z,97067.48
2018-06-16T18:33:38.546Z,97082.70
2018-06-16T18:36:07.141Z,97142.55
2018-06-16T18:38:35.698Z,97181.09
2018-06-16T18:41:04.670Z,97128.34
2018-06-16T18:43:33.165Z,97139.50
2018-06-16T18:46:01.650Z,97147.62
2018-06-16T18:48:30.159Z,97190.23
2018-06-16T18:50:58.682Z,97156.75
2018-06-16T18:53:27.181Z,97229.80
2018-06-16T18:55:55.678Z,97187.19
2018-06-16T18:58:24.436Z,97256.17
2018-06-16T19:00:52.909Z,97280.52
2018-06-16T19:03:21.405Z,97233.84
2018-06-16T19:05:50.098Z,97270.38
2018-06-16T19:08:18.606Z,97273.41
2018-06-16T19:10:47.158Z,97290.66
2018-06-16T19:13:15.631Z,97303.84
2018-06-16T19:15:44.142Z,97299.80
2018-06-16T19:18:12.621Z,97299.80
2018-06-16T19:20:41.158Z,97299.80
2018-06-16T19:23:09.856Z,97378.92
2018-06-16T19:25:38.294Z,97304.87
2018-06-16T19:28:06.798Z,97303.84
2018-06-16T19:30:35.301Z,97410.37
2018-06-16T19:33:03.804Z,97390.09
2018-06-16T19:35:32.294Z,97395.16
2018-06-16T19:38:01.214Z,97406.31
2018-06-16T19:40:29.695Z,97387.04
2018-06-16T19:42:58.161Z,97418.49
2018-06-16T19:45:26.706Z,97422.55
2018-06-16T19:47:55.168Z,97415.45
2018-06-16T19:50:23.730Z,97434.72
2018-06-16T19:52:52.425Z,97433.71
2018-06-16T19:55:20.942Z,97407.33
2018-06-16T19:57:49.454Z,97430.66
2018-06-16T20:00:17.998Z,97437.77
2018-06-16T20:02:46.657Z,97486.47
2018-06-16T20:05:15.205Z,97494.58
2018-06-16T20:07:43.702Z,97494.58
2018-06-16T20:10:12.187Z,97440.81
2018-06-16T20:12:40.713Z,97475.30
2018-06-16T20:15:09.254Z,97464.14
2018-06-16T20:17:37.906Z,97455.02
2018-06-16T20:20:07.773Z,97468.20
2018-06-16T20:22:36.401Z,97500.67
2018-06-16T20:25:04.949Z,97494.58
2018-06-16T20:27:33.421Z,97483.42
2018-06-16T20:30:02.332Z,97539.22
2018-06-16T20:32:30.813Z,97528.06
2018-06-16T20:34:59.829Z,97501.69
2018-06-16T20:37:28.389Z,97515.89
2018-06-16T20:39:56.860Z,97543.28
2018-06-16T20:42:25.377Z,97535.16
2018-06-16T20:44:53.866Z,97517.92
2018-06-16T20:47:22.348Z,97540.23
2018-06-16T20:49:51.012Z,97550.38
2018-06-16T20:52:19.502Z,97576.77
2018-06-16T20:54:47.978Z,97564.59
2018-06-16T20:57:16.502Z,97557.48
2018-06-16T20:59:45.509Z,97608.22
2018-06-16T21:02:14.003Z,97579.80
2018-06-16T21:04:42.485Z,97587.92
2018-06-16T21:07:11.189Z,97600.09
2018-06-16T21:09:39.749Z,97579.80
2018-06-16T21:12:08.178Z,97599.08
2018-06-16T21:14:36.889Z,97601.11
2018-06-16T21:17:05.798Z,97640.68
2018-06-16T21:19:34.265Z,97612.27
2018-06-16T21:22:03.193Z,97639.66
2018-06-16T21:24:31.847Z,97625.46
2018-06-16T21:27:00.361Z,97636.63
2018-06-16T21:29:28.854Z,97607.20
2018-06-16T21:31:57.486Z,97626.48
2018-06-16T21:34:26.169Z,97647.78
2018-06-16T21:36:54.774Z,97711.70
2018-06-16T21:39:23.266Z,97733.02
2018-06-16T21:41:51.754Z,97733.02
2018-06-16T21:44:20.370Z,97810.12
2018-06-16T21:46:48.929Z,97785.77
2018-06-16T21:49:17.410Z,97879.12
2018-06-16T21:51:46.046Z,97899.41
2018-06-16T21:54:14.510Z,97912.61
2018-06-16T21:56:43.097Z,97898.41
2018-06-16T21:59:11.617Z,97942.03
2018-06-16T22:01:40.062Z,97915.65
2018-06-16T22:04:08.581Z,97909.56
2018-06-16T22:06:37.132Z,97936.95
2018-06-16T22:09:09.054Z,97977.55
2018-06-16T22:11:37.558Z,97938.98
2018-06-16T22:14:06.105Z,97953.20
2018-06-16T22:16:34.638Z,97992.77
2018-06-16T22:19:03.115Z,97988.70
2018-06-16T22:21:31.590Z,97979.58
2018-06-16T22:24:00.483Z,98030.31
2018-06-16T22:26:29.231Z,98042.48
2018-06-16T22:28:57.701Z,98019.15
2018-06-16T22:31:26.182Z,98024.22
2018-06-16T22:33:54.678Z,98079.02
2018-06-16T22:36:23.376Z,98051.63
2018-06-16T22:38:51.870Z,98047.56
2018-06-16T22:41:20.397Z,98078.00
2018-06-16T22:43:48.905Z,98086.13
2018-06-16T22:46:17.438Z,98074.95
2018-06-16T22:48:45.981Z,98061.77
2018-06-16T22:51:14.475Z,98072.93
2018-06-16T22:53:43.026Z,98028.28
2018-06-16T22:56:11.486Z,98012.05
2018-06-16T22:58:39.962Z,98055.68
2018-06-16T23:01:08.617Z,98016.11
2018-06-16T23:03:37.124Z,98051.63
2018-06-16T23:06:05.656Z,98027.27
2018-06-16T23:08:34.181Z,98013.06
2018-06-16T23:11:02.697Z,98027.27
2018-06-16T23:13:31.242Z,98004.94
2018-06-16T23:15:59.884Z,98030.31
2018-06-16T23:18:28.361Z,98023.21
2018-06-16T23:20:57.086Z,98030.31
2018-06-16T23:23:25.634Z,98017.12
2018-06-16T23:25:54.129Z,98025.23
2018-06-16T23:28:22.609Z,97993.78
2018-06-16T23:30:51.106Z,98030.31
2018-06-16T23:33:19.635Z,98022.19
2018-06-16T23:35:48.127Z,97991.75
2018-06-16T23:38:16.632Z,98047.56
2018-06-16T23:40:45.257Z,98032.34
2018-06-16T23:43:13.773Z,98028.28
2018-06-16T23:45:42.270Z,98039.45
2018-06-16T23:48:10.950Z,98021.17
2018-06-16T23:50:39.458Z,98037.41
2018-06-16T23:53:07.938Z,98011.03
2018-06-16T23:55:36.461Z,98033.36
2018-06-16T23:58:04.938Z,98084.09
